Weather at C C A Heliport

Public forecast

Using degrees Fahrenheit for public forecast. Weather courtesy of forecast.io.

Closest aviation weather report (METAR) to C C A Heliport

Closest report is Cincinnati Municipal Airport Lunken Field, 7.9 nm (14.6 km) SW. Retrieved 2021/06/23 02:53 UTC (36 minutes ago):

KLUK 230253Z 00000KT 10SM CLR 13/09 A3009 RMK AO2 SLP189 T01330089 53018

Closest aviation forecast (TAF) to C C A Heliport

Closest forecast is Cincinnati Municipal Airport Lunken Field, 7.9 nm (14.6 km) SW. Retrieved 2021-06-23 00:36 UTC (3 hours ago):

TAF KLUK 222335Z 2300/2324 VRB03KT P6SM SKC TEMPO 2308/2312 00000KT 4SM BR FM231200 14005KT P6SM BKN250 FM231500 25007KT P6SM SCT150 BKN250